sensor_id;sensor_type;location;lat;lon;timestamp;temperature;humidity
54272;DHT22;40184;53.362;5.216;2023-04-29T00:01:18;9.40;99.90
54272;DHT22;40184;53.362;5.216;2023-04-29T00:03:44;9.40;99.90
54272;DHT22;40184;53.362;5.216;2023-04-29T00:06:10;9.40;99.90
54272;DHT22;40184;53.362;5.216;2023-04-29T00:08:38;9.40;99.90
54272;DHT22;40184;53.362;5.216;2023-04-29T00:11:04;9.40;99.90
54272;DHT22;40184;53.362;5.216;2023-04-29T00:13:30;9.50;99.90
54272;DHT22;40184;53.362;5.216;2023-04-29T00:15:56;9.50;99.90
54272;DHT22;40184;53.362;5.216;2023-04-29T00:18:21;9.50;99.90
54272;DHT22;40184;53.362;5.216;2023-04-29T00:20:47;9.40;99.90
54272;DHT22;40184;53.362;5.216;2023-04-29T00:23:13;9.40;99.90
54272;DHT22;40184;53.362;5.216;2023-04-29T00:25:38;9.40;99.90
54272;DHT22;40184;53.362;5.216;2023-04-29T00:28:05;9.40;99.90
54272;DHT22;40184;53.362;5.216;2023-04-29T00:30:30;9.40;99.90
54272;DHT22;40184;53.362;5.216;2023-04-29T00:32:57;9.40;99.90
54272;DHT22;40184;53.362;5.216;2023-04-29T00:35:23;9.30;99.90
54272;DHT22;40184;53.362;5.216;2023-04-29T00:37:49;9.30;99.90
54272;DHT22;40184;53.362;5.216;2023-04-29T00:40:14;9.20;99.90
54272;DHT22;40184;53.362;5.216;2023-04-29T00:42:41;9.20;99.90
54272;DHT22;40184;53.362;5.216;2023-04-29T00:45:08;9.20;99.90
54272;DHT22;40184;53.362;5.216;2023-04-29T00:47:34;9.20;99.90
54272;DHT22;40184;53.362;5.216;2023-04-29T00:49:59;9.20;99.90
54272;DHT22;40184;53.362;5.216;2023-04-29T00:52:28;9.10;99.90
54272;DHT22;40184;53.362;5.216;2023-04-29T00:54:54;9.10;99.90
54272;DHT22;40184;53.362;5.216;2023-04-29T00:57:21;9.10;99.90
54272;DHT22;40184;53.362;5.216;2023-04-29T00:59:47;9.10;99.90
54272;DHT22;40184;53.362;5.216;2023-04-29T01:02:15;9.10;99.90
54272;DHT22;40184;53.362;5.216;2023-04-29T01:04:42;9.10;99.90
54272;DHT22;40184;53.362;5.216;2023-04-29T01:07:32;9.10;99.90
54272;DHT22;40184;53.362;5.216;2023-04-29T01:12:44;9.20;99.90
54272;DHT22;40184;53.362;5.216;2023-04-29T01:17:46;9.20;99.90
54272;DHT22;40184;53.362;5.216;2023-04-29T01:20:13;9.20;99.90
54272;DHT22;40184;53.362;5.216;2023-04-29T01:22:39;9.20;99.90
54272;DHT22;40184;53.362;5.216;2023-04-29T01:25:06;9.20;99.90
54272;DHT22;40184;53.362;5.216;2023-04-29T01:28:01;9.20;99.90
54272;DHT22;40184;53.362;5.216;2023-04-29T01:30:40;9.20;99.90
54272;DHT22;40184;53.362;5.216;2023-04-29T01:41:18;9.10;99.90
54272;DHT22;40184;53.362;5.216;2023-04-29T01:43:47;9.10;99.90
54272;DHT22;40184;53.362;5.216;2023-04-29T01:46:16;9.10;99.90
54272;DHT22;40184;53.362;5.216;2023-04-29T01:48:44;9.10;99.90
54272;DHT22;40184;53.362;5.216;2023-04-29T01:51:09;9.10;99.90
54272;DHT22;40184;53.362;5.216;2023-04-29T01:53:35;9.00;99.90
54272;DHT22;40184;53.362;5.216;2023-04-29T01:56:01;9.00;99.90
54272;DHT22;40184;53.362;5.216;2023-04-29T01:58:27;9.00;99.90
54272;DHT22;40184;53.362;5.216;2023-04-29T02:00:53;9.00;99.90
54272;DHT22;40184;53.362;5.216;2023-04-29T02:03:19;8.90;99.90
54272;DHT22;40184;53.362;5.216;2023-04-29T02:05:45;9.00;99.90
54272;DHT22;40184;53.362;5.216;2023-04-29T02:08:11;8.90;99.90
54272;DHT22;40184;53.362;5.216;2023-04-29T02:10:37;8.90;99.90
54272;DHT22;40184;53.362;5.216;2023-04-29T02:13:03;8.90;99.90
54272;DHT22;40184;53.362;5.216;2023-04-29T02:15:28;8.90;99.90
54272;DHT22;40184;53.362;5.216;2023-04-29T02:17:54;8.90;99.90
54272;DHT22;40184;53.362;5.216;2023-04-29T02:20:20;8.90;99.90
54272;DHT22;40184;53.362;5.216;2023-04-29T02:22:46;8.90;99.90
54272;DHT22;40184;53.362;5.216;2023-04-29T02:25:11;8.90;99.90
54272;DHT22;40184;53.362;5.216;2023-04-29T02:27:37;8.90;99.90
54272;DHT22;40184;53.362;5.216;2023-04-29T02:30:03;8.80;99.90
54272;DHT22;40184;53.362;5.216;2023-04-29T02:32:30;8.80;99.90
54272;DHT22;40184;53.362;5.216;2023-04-29T02:34:56;8.80;99.90
54272;DHT22;40184;53.362;5.216;2023-04-29T02:37:22;8.80;99.90
54272;DHT22;40184;53.362;5.216;2023-04-29T02:39:48;8.80;99.90
54272;DHT22;40184;53.362;5.216;2023-04-29T02:42:13;8.80;99.90
54272;DHT22;40184;53.362;5.216;2023-04-29T02:44:39;8.80;99.90
54272;DHT22;40184;53.362;5.216;2023-04-29T02:47:06;8.80;99.90
54272;DHT22;40184;53.362;5.216;2023-04-29T02:49:31;8.80;99.90
54272;DHT22;40184;53.362;5.216;2023-04-29T02:51:57;8.80;99.90
54272;DHT22;40184;53.362;5.216;2023-04-29T02:54:23;8.80;99.90
54272;DHT22;40184;53.362;5.216;2023-04-29T02:56:48;8.70;99.90
54272;DHT22;40184;53.362;5.216;2023-04-29T02:59:14;8.70;99.90
54272;DHT22;40184;53.362;5.216;2023-04-29T03:01:40;8.70;99.90
54272;DHT22;40184;53.362;5.216;2023-04-29T03:04:06;8.70;99.90
54272;DHT22;40184;53.362;5.216;2023-04-29T03:06:32;8.70;99.90
54272;DHT22;40184;53.362;5.216;2023-04-29T03:08:57;8.70;99.90
54272;DHT22;40184;53.362;5.216;2023-04-29T03:11:23;8.70;99.90
54272;DHT22;40184;53.362;5.216;2023-04-29T03:13:49;8.70;99.90
54272;DHT22;40184;53.362;5.216;2023-04-29T03:16:15;8.70;99.90
54272;DHT22;40184;53.362;5.216;2023-04-29T03:18:42;8.60;99.90
54272;DHT22;40184;53.362;5.216;2023-04-29T03:21:08;8.60;99.90
54272;DHT22;40184;53.362;5.216;2023-04-29T03:23:33;8.60;99.90
54272;DHT22;40184;53.362;5.216;2023-04-29T03:25:59;8.60;99.90
54272;DHT22;40184;53.362;5.216;2023-04-29T03:28:25;8.60;99.90
54272;DHT22;40184;53.362;5.216;2023-04-29T03:30:51;8.60;99.90
54272;DHT22;40184;53.362;5.216;2023-04-29T03:33:17;8.60;99.90
54272;DHT22;40184;53.362;5.216;2023-04-29T03:35:43;8.50;99.90
54272;DHT22;40184;53.362;5.216;2023-04-29T03:38:10;8.60;99.90
54272;DHT22;40184;53.362;5.216;2023-04-29T03:40:36;8.60;99.90
54272;DHT22;40184;53.362;5.216;2023-04-29T03:43:02;8.50;99.90
54272;DHT22;40184;53.362;5.216;2023-04-29T03:45:28;8.50;99.90
54272;DHT22;40184;53.362;5.216;2023-04-29T03:47:54;8.50;99.90
54272;DHT22;40184;53.362;5.216;2023-04-29T03:50:19;8.50;99.90
54272;DHT22;40184;53.362;5.216;2023-04-29T03:52:45;8.50;99.90
54272;DHT22;40184;53.362;5.216;2023-04-29T03:55:11;8.50;99.90
54272;DHT22;40184;53.362;5.216;2023-04-29T03:57:37;8.50;99.90
54272;DHT22;40184;53.362;5.216;2023-04-29T04:00:04;8.40;99.90
54272;DHT22;40184;53.362;5.216;2023-04-29T04:02:29;8.50;99.90
54272;DHT22;40184;53.362;5.216;2023-04-29T04:04:55;8.40;99.90
54272;DHT22;40184;53.362;5.216;2023-04-29T04:07:21;8.40;99.90
54272;DHT22;40184;53.362;5.216;2023-04-29T04:09:46;8.40;99.90
54272;DHT22;40184;53.362;5.216;2023-04-29T04:12:12;8.40;99.90
54272;DHT22;40184;53.362;5.216;2023-04-29T04:14:38;8.30;99.90
54272;DHT22;40184;53.362;5.216;2023-04-29T04:17:03;8.30;99.90
54272;DHT22;40184;53.362;5.216;2023-04-29T04:19:29;8.30;99.90
54272;DHT22;40184;53.362;5.216;2023-04-29T04:21:55;8.40;99.90
54272;DHT22;40184;53.362;5.216;2023-04-29T04:24:22;8.30;99.90
54272;DHT22;40184;53.362;5.216;2023-04-29T04:26:47;8.30;99.90
54272;DHT22;40184;53.362;5.216;2023-04-29T04:29:13;8.30;99.90
54272;DHT22;40184;53.362;5.216;2023-04-29T04:31:38;8.30;99.90
54272;DHT22;40184;53.362;5.216;2023-04-29T04:34:04;8.30;99.90
54272;DHT22;40184;53.362;5.216;2023-04-29T04:36:30;8.30;99.90
54272;DHT22;40184;53.362;5.216;2023-04-29T04:38:57;8.30;99.90
54272;DHT22;40184;53.362;5.216;2023-04-29T04:41:23;8.30;99.90
54272;DHT22;40184;53.362;5.216;2023-04-29T04:43:48;8.30;99.90
54272;DHT22;40184;53.362;5.216;2023-04-29T04:46:15;8.40;99.90
54272;DHT22;40184;53.362;5.216;2023-04-29T04:48:41;8.40;99.90
54272;DHT22;40184;53.362;5.216;2023-04-29T04:51:11;8.30;99.90
54272;DHT22;40184;53.362;5.216;2023-04-29T04:53:37;8.30;99.90
54272;DHT22;40184;53.362;5.216;2023-04-29T04:56:04;8.30;99.90
54272;DHT22;40184;53.362;5.216;2023-04-29T04:58:31;8.30;99.90
54272;DHT22;40184;53.362;5.216;2023-04-29T05:01:00;8.30;99.90
54272;DHT22;40184;53.362;5.216;2023-04-29T05:03:26;8.40;99.90
54272;DHT22;40184;53.362;5.216;2023-04-29T05:05:53;8.30;99.90
54272;DHT22;40184;53.362;5.216;2023-04-29T05:08:19;8.40;99.90
54272;DHT22;40184;53.362;5.216;2023-04-29T05:10:45;8.40;99.90
54272;DHT22;40184;53.362;5.216;2023-04-29T05:13:11;8.40;99.90
54272;DHT22;40184;53.362;5.216;2023-04-29T05:15:36;8.40;99.90
54272;DHT22;40184;53.362;5.216;2023-04-29T05:18:02;8.50;99.90
54272;DHT22;40184;53.362;5.216;2023-04-29T05:20:28;8.50;99.90
54272;DHT22;40184;53.362;5.216;2023-04-29T05:22:53;8.50;99.90
54272;DHT22;40184;53.362;5.216;2023-04-29T05:25:19;8.60;99.90
54272;DHT22;40184;53.362;5.216;2023-04-29T05:27:45;8.60;99.90
54272;DHT22;40184;53.362;5.216;2023-04-29T05:30:10;8.60;99.90
54272;DHT22;40184;53.362;5.216;2023-04-29T05:32:36;8.60;99.90
54272;DHT22;40184;53.362;5.216;2023-04-29T05:35:02;8.70;99.90
54272;DHT22;40184;53.362;5.216;2023-04-29T05:37:28;8.80;99.90
54272;DHT22;40184;53.362;5.216;2023-04-29T05:39:56;8.80;99.90
54272;DHT22;40184;53.362;5.216;2023-04-29T05:42:22;8.80;99.90
54272;DHT22;40184;53.362;5.216;2023-04-29T05:44:49;8.90;99.90
54272;DHT22;40184;53.362;5.216;2023-04-29T05:47:14;8.90;99.90
54272;DHT22;40184;53.362;5.216;2023-04-29T05:49:40;8.90;99.90
54272;DHT22;40184;53.362;5.216;2023-04-29T05:52:06;8.90;99.90
54272;DHT22;40184;53.362;5.216;2023-04-29T05:54:32;9.00;99.90
54272;DHT22;40184;53.362;5.216;2023-04-29T05:56:59;9.00;99.90
54272;DHT22;40184;53.362;5.216;2023-04-29T05:59:28;9.10;99.90
54272;DHT22;40184;53.362;5.216;2023-04-29T06:01:54;9.10;99.90
54272;DHT22;40184;53.362;5.216;2023-04-29T06:04:20;9.20;99.90
54272;DHT22;40184;53.362;5.216;2023-04-29T06:06:46;9.20;99.90
54272;DHT22;40184;53.362;5.216;2023-04-29T06:09:12;9.30;99.90
54272;DHT22;40184;53.362;5.216;2023-04-29T06:11:40;9.30;99.90
54272;DHT22;40184;53.362;5.216;2023-04-29T06:14:06;9.40;99.90
54272;DHT22;40184;53.362;5.216;2023-04-29T06:16:32;9.40;99.90
54272;DHT22;40184;53.362;5.216;2023-04-29T06:18:57;9.50;99.90
54272;DHT22;40184;53.362;5.216;2023-04-29T06:21:23;9.50;99.90
54272;DHT22;40184;53.362;5.216;2023-04-29T06:23:49;9.60;99.90
54272;DHT22;40184;53.362;5.216;2023-04-29T06:26:15;9.70;99.90
54272;DHT22;40184;53.362;5.216;2023-04-29T06:28:40;9.70;99.90
54272;DHT22;40184;53.362;5.216;2023-04-29T06:31:07;9.90;99.90
54272;DHT22;40184;53.362;5.216;2023-04-29T06:33:33;9.90;99.90
54272;DHT22;40184;53.362;5.216;2023-04-29T06:35:59;10.00;99.90
54272;DHT22;40184;53.362;5.216;2023-04-29T06:38:24;10.10;99.90
54272;DHT22;40184;53.362;5.216;2023-04-29T06:40:50;10.10;99.90
54272;DHT22;40184;53.362;5.216;2023-04-29T06:43:15;10.10;99.90
54272;DHT22;40184;53.362;5.216;2023-04-29T06:45:45;10.10;99.90
54272;DHT22;40184;53.362;5.216;2023-04-29T06:48:11;10.20;99.90
54272;DHT22;40184;53.362;5.216;2023-04-29T06:50:37;10.40;99.90
54272;DHT22;40184;53.362;5.216;2023-04-29T06:53:02;10.40;99.90
54272;DHT22;40184;53.362;5.216;2023-04-29T06:55:28;10.50;99.90
54272;DHT22;40184;53.362;5.216;2023-04-29T06:57:53;10.60;99.90
54272;DHT22;40184;53.362;5.216;2023-04-29T07:00:19;10.70;99.90
54272;DHT22;40184;53.362;5.216;2023-04-29T07:02:47;10.70;99.90
54272;DHT22;40184;53.362;5.216;2023-04-29T07:05:12;10.70;99.90
54272;DHT22;40184;53.362;5.216;2023-04-29T07:07:38;10.90;99.90
54272;DHT22;40184;53.362;5.216;2023-04-29T07:10:04;11.00;99.90
54272;DHT22;40184;53.362;5.216;2023-04-29T07:12:30;11.00;99.90
54272;DHT22;40184;53.362;5.216;2023-04-29T07:14:56;11.10;99.90
54272;DHT22;40184;53.362;5.216;2023-04-29T07:17:22;11.10;99.90
54272;DHT22;40184;53.362;5.216;2023-04-29T07:19:48;11.10;99.90
54272;DHT22;40184;53.362;5.216;2023-04-29T07:22:14;11.00;99.90
54272;DHT22;40184;53.362;5.216;2023-04-29T07:24:39;10.90;99.90
54272;DHT22;40184;53.362;5.216;2023-04-29T07:27:05;10.80;99.90
54272;DHT22;40184;53.362;5.216;2023-04-29T07:29:32;10.80;99.90
54272;DHT22;40184;53.362;5.216;2023-04-29T07:31:57;10.90;99.90
54272;DHT22;40184;53.362;5.216;2023-04-29T07:34:23;10.80;99.90
54272;DHT22;40184;53.362;5.216;2023-04-29T07:36:49;10.80;99.90
54272;DHT22;40184;53.362;5.216;2023-04-29T07:39:14;10.70;99.90
54272;DHT22;40184;53.362;5.216;2023-04-29T07:41:40;10.60;99.90
54272;DHT22;40184;53.362;5.216;2023-04-29T07:44:06;10.70;99.90
54272;DHT22;40184;53.362;5.216;2023-04-29T07:46:32;10.60;99.90
54272;DHT22;40184;53.362;5.216;2023-04-29T07:48:57;10.70;99.90
54272;DHT22;40184;53.362;5.216;2023-04-29T07:51:23;10.80;99.90
54272;DHT22;40184;53.362;5.216;2023-04-29T07:53:49;10.90;99.90
54272;DHT22;40184;53.362;5.216;2023-04-29T07:56:14;11.10;99.90
54272;DHT22;40184;53.362;5.216;2023-04-29T07:58:40;11.20;99.90
54272;DHT22;40184;53.362;5.216;2023-04-29T08:01:10;11.20;99.90
54272;DHT22;40184;53.362;5.216;2023-04-29T08:03:36;11.30;99.90
54272;DHT22;40184;53.362;5.216;2023-04-29T08:06:03;11.30;99.90
54272;DHT22;40184;53.362;5.216;2023-04-29T08:08:30;11.30;99.90
54272;DHT22;40184;53.362;5.216;2023-04-29T08:10:56;11.30;99.90
54272;DHT22;40184;53.362;5.216;2023-04-29T08:13:22;11.30;99.90
54272;DHT22;40184;53.362;5.216;2023-04-29T08:15:48;11.20;99.90
54272;DHT22;40184;53.362;5.216;2023-04-29T08:18:13;11.20;99.90
54272;DHT22;40184;53.362;5.216;2023-04-29T08:20:39;11.20;99.90
54272;DHT22;40184;53.362;5.216;2023-04-29T08:23:04;11.20;99.90
54272;DHT22;40184;53.362;5.216;2023-04-29T08:25:30;11.30;99.90
54272;DHT22;40184;53.362;5.216;2023-04-29T08:27:56;11.30;99.90
54272;DHT22;40184;53.362;5.216;2023-04-29T08:30:22;11.50;99.90
54272;DHT22;40184;53.362;5.216;2023-04-29T08:32:48;11.60;99.90
54272;DHT22;40184;53.362;5.216;2023-04-29T08:35:13;11.60;99.90
54272;DHT22;40184;53.362;5.216;2023-04-29T08:37:39;11.60;99.90
54272;DHT22;40184;53.362;5.216;2023-04-29T08:40:05;11.60;99.90
54272;DHT22;40184;53.362;5.216;2023-04-29T08:42:36;11.70;99.90
54272;DHT22;40184;53.362;5.216;2023-04-29T08:45:05;11.80;99.90
54272;DHT22;40184;53.362;5.216;2023-04-29T08:47:32;11.80;99.90
54272;DHT22;40184;53.362;5.216;2023-04-29T08:50:04;11.70;99.90
54272;DHT22;40184;53.362;5.216;2023-04-29T08:52:31;11.80;99.90
54272;DHT22;40184;53.362;5.216;2023-04-29T08:55:01;11.70;99.90
54272;DHT22;40184;53.362;5.216;2023-04-29T08:57:29;11.70;99.90
54272;DHT22;40184;53.362;5.216;2023-04-29T08:59:56;11.80;99.90
54272;DHT22;40184;53.362;5.216;2023-04-29T09:02:24;11.80;99.90
54272;DHT22;40184;53.362;5.216;2023-04-29T09:05:03;11.90;99.90
54272;DHT22;40184;53.362;5.216;2023-04-29T09:07:31;11.90;99.90
54272;DHT22;40184;53.362;5.216;2023-04-29T09:09:58;12.00;99.90
54272;DHT22;40184;53.362;5.216;2023-04-29T09:12:24;12.20;99.90
54272;DHT22;40184;53.362;5.216;2023-04-29T09:14:49;12.20;99.90
54272;DHT22;40184;53.362;5.216;2023-04-29T09:17:15;12.20;99.90
54272;DHT22;40184;53.362;5.216;2023-04-29T09:19:42;12.00;99.90
54272;DHT22;40184;53.362;5.216;2023-04-29T09:22:08;12.20;99.90
54272;DHT22;40184;53.362;5.216;2023-04-29T09:24:35;12.30;99.90
54272;DHT22;40184;53.362;5.216;2023-04-29T09:27:02;12.40;99.90
54272;DHT22;40184;53.362;5.216;2023-04-29T09:29:29;12.40;99.90
54272;DHT22;40184;53.362;5.216;2023-04-29T09:31:56;12.40;99.90
54272;DHT22;40184;53.362;5.216;2023-04-29T09:34:33;12.60;99.90
54272;DHT22;40184;53.362;5.216;2023-04-29T09:37:02;12.80;99.90
54272;DHT22;40184;53.362;5.216;2023-04-29T09:39:37;12.80;99.90
54272;DHT22;40184;53.362;5.216;2023-04-29T09:42:03;12.80;99.90
54272;DHT22;40184;53.362;5.216;2023-04-29T09:44:33;13.00;99.90
54272;DHT22;40184;53.362;5.216;2023-04-29T09:47:04;13.00;99.90
54272;DHT22;40184;53.362;5.216;2023-04-29T09:49:33;13.10;99.90
54272;DHT22;40184;53.362;5.216;2023-04-29T09:54:35;13.30;99.90
54272;DHT22;40184;53.362;5.216;2023-04-29T09:57:03;13.30;99.90
54272;DHT22;40184;53.362;5.216;2023-04-29T09:59:31;13.40;99.90
54272;DHT22;40184;53.362;5.216;2023-04-29T10:01:58;13.30;99.90
54272;DHT22;40184;53.362;5.216;2023-04-29T10:04:25;13.40;99.90
54272;DHT22;40184;53.362;5.216;2023-04-29T10:06:55;13.30;99.90
54272;DHT22;40184;53.362;5.216;2023-04-29T10:09:22;13.40;99.90
54272;DHT22;40184;53.362;5.216;2023-04-29T10:11:50;13.40;99.90
54272;DHT22;40184;53.362;5.216;2023-04-29T10:14:23;13.50;99.90
54272;DHT22;40184;53.362;5.216;2023-04-29T10:17:00;13.60;99.90
54272;DHT22;40184;53.362;5.216;2023-04-29T10:19:47;13.50;99.90
54272;DHT22;40184;53.362;5.216;2023-04-29T10:22:25;13.50;99.90
54272;DHT22;40184;53.362;5.216;2023-04-29T10:24:52;13.60;99.90
54272;DHT22;40184;53.362;5.216;2023-04-29T10:27:20;13.60;99.90
54272;DHT22;40184;53.362;5.216;2023-04-29T10:29:47;13.50;99.90
54272;DHT22;40184;53.362;5.216;2023-04-29T10:32:14;13.60;99.90
54272;DHT22;40184;53.362;5.216;2023-04-29T10:34:41;13.70;99.90
54272;DHT22;40184;53.362;5.216;2023-04-29T10:37:09;13.80;99.90
54272;DHT22;40184;53.362;5.216;2023-04-29T10:39:41;13.90;99.90
54272;DHT22;40184;53.362;5.216;2023-04-29T10:42:45;14.00;99.90
54272;DHT22;40184;53.362;5.216;2023-04-29T10:50:39;14.30;99.90
54272;DHT22;40184;53.362;5.216;2023-04-29T10:53:09;14.20;99.90
54272;DHT22;40184;53.362;5.216;2023-04-29T10:55:36;14.40;99.90
54272;DHT22;40184;53.362;5.216;2023-04-29T10:58:03;14.60;99.90
54272;DHT22;40184;53.362;5.216;2023-04-29T11:00:33;14.50;99.90
54272;DHT22;40184;53.362;5.216;2023-04-29T11:03:01;14.80;99.90
54272;DHT22;40184;53.362;5.216;2023-04-29T11:10:40;15.00;99.90
54272;DHT22;40184;53.362;5.216;2023-04-29T11:13:29;15.10;99.90
54272;DHT22;40184;53.362;5.216;2023-04-29T11:16:11;15.00;99.90
54272;DHT22;40184;53.362;5.216;2023-04-29T11:21:28;15.10;99.90
54272;DHT22;40184;53.362;5.216;2023-04-29T11:23:54;15.10;99.90
54272;DHT22;40184;53.362;5.216;2023-04-29T11:26:20;15.00;99.90
54272;DHT22;40184;53.362;5.216;2023-04-29T11:28:46;15.00;99.90
54272;DHT22;40184;53.362;5.216;2023-04-29T11:31:12;15.00;99.90
54272;DHT22;40184;53.362;5.216;2023-04-29T11:33:38;14.90;99.90
54272;DHT22;40184;53.362;5.216;2023-04-29T11:36:04;15.00;99.90
54272;DHT22;40184;53.362;5.216;2023-04-29T11:38:30;15.00;99.90
54272;DHT22;40184;53.362;5.216;2023-04-29T11:40:56;15.20;99.90
54272;DHT22;40184;53.362;5.216;2023-04-29T11:43:23;15.20;99.90
54272;DHT22;40184;53.362;5.216;2023-04-29T11:45:50;15.40;99.90
54272;DHT22;40184;53.362;5.216;2023-04-29T11:48:20;15.40;99.90
54272;DHT22;40184;53.362;5.216;2023-04-29T11:50:49;15.40;99.90
54272;DHT22;40184;53.362;5.216;2023-04-29T11:53:18;15.40;99.90
54272;DHT22;40184;53.362;5.216;2023-04-29T11:55:45;15.40;99.90
54272;DHT22;40184;53.362;5.216;2023-04-29T11:58:11;15.50;99.90
54272;DHT22;40184;53.362;5.216;2023-04-29T12:00:37;15.40;99.90
54272;DHT22;40184;53.362;5.216;2023-04-29T12:03:23;15.50;99.90
54272;DHT22;40184;53.362;5.216;2023-04-29T12:05:53;15.60;99.90
54272;DHT22;40184;53.362;5.216;2023-04-29T12:08:23;15.40;99.90
54272;DHT22;40184;53.362;5.216;2023-04-29T12:10:49;15.40;99.90
54272;DHT22;40184;53.362;5.216;2023-04-29T12:13:16;15.50;99.90
54272;DHT22;40184;53.362;5.216;2023-04-29T12:15:43;15.60;99.90
54272;DHT22;40184;53.362;5.216;2023-04-29T12:18:10;15.40;99.90
54272;DHT22;40184;53.362;5.216;2023-04-29T12:20:36;15.50;99.90
54272;DHT22;40184;53.362;5.216;2023-04-29T12:23:14;15.40;99.90
54272;DHT22;40184;53.362;5.216;2023-04-29T12:25:40;15.70;99.90
54272;DHT22;40184;53.362;5.216;2023-04-29T12:28:13;15.40;99.90
54272;DHT22;40184;53.362;5.216;2023-04-29T12:30:39;15.50;99.90
54272;DHT22;40184;53.362;5.216;2023-04-29T12:33:07;15.60;99.90
54272;DHT22;40184;53.362;5.216;2023-04-29T12:35:34;15.60;99.90
54272;DHT22;40184;53.362;5.216;2023-04-29T12:38:00;15.60;99.90
54272;DHT22;40184;53.362;5.216;2023-04-29T12:40:25;15.70;99.90
54272;DHT22;40184;53.362;5.216;2023-04-29T12:42:54;15.60;99.90
54272;DHT22;40184;53.362;5.216;2023-04-29T12:45:30;15.60;99.90
54272;DHT22;40184;53.362;5.216;2023-04-29T12:47:57;15.90;99.90
54272;DHT22;40184;53.362;5.216;2023-04-29T12:50:34;15.70;99.90
54272;DHT22;40184;53.362;5.216;2023-04-29T12:53:02;15.60;99.90
54272;DHT22;40184;53.362;5.216;2023-04-29T12:55:28;15.80;99.90
54272;DHT22;40184;53.362;5.216;2023-04-29T12:57:54;15.60;99.90
54272;DHT22;40184;53.362;5.216;2023-04-29T13:00:20;15.70;99.90
54272;DHT22;40184;53.362;5.216;2023-04-29T13:02:46;15.60;99.90
54272;DHT22;40184;53.362;5.216;2023-04-29T13:05:12;15.70;99.90
54272;DHT22;40184;53.362;5.216;2023-04-29T13:07:38;15.70;99.90
54272;DHT22;40184;53.362;5.216;2023-04-29T13:10:05;15.90;99.90
54272;DHT22;40184;53.362;5.216;2023-04-29T13:12:31;15.90;99.90
54272;DHT22;40184;53.362;5.216;2023-04-29T13:14:57;16.00;99.90
54272;DHT22;40184;53.362;5.216;2023-04-29T13:17:23;15.90;99.90
54272;DHT22;40184;53.362;5.216;2023-04-29T13:19:48;15.70;99.90
54272;DHT22;40184;53.362;5.216;2023-04-29T13:22:15;15.80;99.90
54272;DHT22;40184;53.362;5.216;2023-04-29T13:24:41;15.70;99.90
54272;DHT22;40184;53.362;5.216;2023-04-29T13:27:06;15.70;99.90
54272;DHT22;40184;53.362;5.216;2023-04-29T13:29:32;15.70;99.90
54272;DHT22;40184;53.362;5.216;2023-04-29T13:31:58;15.70;99.90
54272;DHT22;40184;53.362;5.216;2023-04-29T13:34:23;16.00;99.90
54272;DHT22;40184;53.362;5.216;2023-04-29T13:36:49;15.90;99.90
54272;DHT22;40184;53.362;5.216;2023-04-29T13:39:14;15.90;99.90
54272;DHT22;40184;53.362;5.216;2023-04-29T13:41:41;16.00;99.90
54272;DHT22;40184;53.362;5.216;2023-04-29T13:44:07;15.90;99.90
54272;DHT22;40184;53.362;5.216;2023-04-29T13:46:33;16.20;99.90
54272;DHT22;40184;53.362;5.216;2023-04-29T13:48:59;16.30;99.90
54272;DHT22;40184;53.362;5.216;2023-04-29T13:51:24;16.10;99.90
54272;DHT22;40184;53.362;5.216;2023-04-29T13:53:50;16.20;99.90
54272;DHT22;40184;53.362;5.216;2023-04-29T13:56:16;16.20;99.90
54272;DHT22;40184;53.362;5.216;2023-04-29T13:58:41;16.40;99.90
54272;DHT22;40184;53.362;5.216;2023-04-29T14:01:07;16.60;99.90
54272;DHT22;40184;53.362;5.216;2023-04-29T14:03:33;16.50;99.90
54272;DHT22;40184;53.362;5.216;2023-04-29T14:05:59;16.80;99.90
54272;DHT22;40184;53.362;5.216;2023-04-29T14:08:25;17.20;99.90
54272;DHT22;40184;53.362;5.216;2023-04-29T14:10:51;17.30;99.90
54272;DHT22;40184;53.362;5.216;2023-04-29T14:13:16;17.50;99.90
54272;DHT22;40184;53.362;5.216;2023-04-29T14:15:42;17.70;99.90
54272;DHT22;40184;53.362;5.216;2023-04-29T14:18:08;17.60;99.90
54272;DHT22;40184;53.362;5.216;2023-04-29T14:20:36;17.60;99.90
54272;DHT22;40184;53.362;5.216;2023-04-29T14:23:02;18.10;99.90
54272;DHT22;40184;53.362;5.216;2023-04-29T14:25:27;18.60;99.90
54272;DHT22;40184;53.362;5.216;2023-04-29T14:27:53;18.80;99.90
54272;DHT22;40184;53.362;5.216;2023-04-29T14:30:19;19.10;99.90
54272;DHT22;40184;53.362;5.216;2023-04-29T14:32:45;19.00;99.90
54272;DHT22;40184;53.362;5.216;2023-04-29T14:35:11;19.20;99.90
54272;DHT22;40184;53.362;5.216;2023-04-29T14:37:36;19.40;99.90
54272;DHT22;40184;53.362;5.216;2023-04-29T14:40:02;19.50;99.90
54272;DHT22;40184;53.362;5.216;2023-04-29T14:42:28;19.80;99.90
54272;DHT22;40184;53.362;5.216;2023-04-29T14:44:54;19.50;99.90
54272;DHT22;40184;53.362;5.216;2023-04-29T14:47:20;19.50;99.90
54272;DHT22;40184;53.362;5.216;2023-04-29T14:49:46;19.60;99.90
54272;DHT22;40184;53.362;5.216;2023-04-29T14:52:11;19.70;99.90
54272;DHT22;40184;53.362;5.216;2023-04-29T14:54:37;19.70;99.90
54272;DHT22;40184;53.362;5.216;2023-04-29T14:57:03;19.90;99.90
54272;DHT22;40184;53.362;5.216;2023-04-29T14:59:28;19.90;99.90
54272;DHT22;40184;53.362;5.216;2023-04-29T15:01:57;19.70;99.90
54272;DHT22;40184;53.362;5.216;2023-04-29T15:04:23;19.80;99.90
54272;DHT22;40184;53.362;5.216;2023-04-29T15:06:49;19.70;99.90
54272;DHT22;40184;53.362;5.216;2023-04-29T15:09:14;20.10;99.90
54272;DHT22;40184;53.362;5.216;2023-04-29T15:11:41;20.00;99.90
54272;DHT22;40184;53.362;5.216;2023-04-29T15:14:06;19.90;99.90
54272;DHT22;40184;53.362;5.216;2023-04-29T15:16:33;20.10;99.90
54272;DHT22;40184;53.362;5.216;2023-04-29T15:18:59;20.30;99.90
54272;DHT22;40184;53.362;5.216;2023-04-29T15:21:25;20.40;99.90
54272;DHT22;40184;53.362;5.216;2023-04-29T15:23:51;20.80;99.90
54272;DHT22;40184;53.362;5.216;2023-04-29T15:26:17;20.70;99.90
54272;DHT22;40184;53.362;5.216;2023-04-29T15:28:44;20.60;99.90
54272;DHT22;40184;53.362;5.216;2023-04-29T15:31:11;20.40;99.90
54272;DHT22;40184;53.362;5.216;2023-04-29T15:33:37;19.80;99.90
54272;DHT22;40184;53.362;5.216;2023-04-29T15:36:03;19.80;99.90
54272;DHT22;40184;53.362;5.216;2023-04-29T15:38:28;20.50;99.90
54272;DHT22;40184;53.362;5.216;2023-04-29T15:40:54;20.20;99.90
54272;DHT22;40184;53.362;5.216;2023-04-29T15:43:29;19.80;99.90
54272;DHT22;40184;53.362;5.216;2023-04-29T15:45:55;19.00;99.90
54272;DHT22;40184;53.362;5.216;2023-04-29T15:48:21;17.60;99.90
54272;DHT22;40184;53.362;5.216;2023-04-29T15:50:46;16.90;99.90
54272;DHT22;40184;53.362;5.216;2023-04-29T15:53:12;16.10;99.90
54272;DHT22;40184;53.362;5.216;2023-04-29T15:55:38;15.70;99.90
54272;DHT22;40184;53.362;5.216;2023-04-29T15:58:04;15.20;99.90
54272;DHT22;40184;53.362;5.216;2023-04-29T16:00:29;14.90;99.90
54272;DHT22;40184;53.362;5.216;2023-04-29T16:02:56;14.70;99.90
54272;DHT22;40184;53.362;5.216;2023-04-29T16:05:21;14.50;99.90